createdAt,value
2023-01-13T00:02:02.781Z,2.20
2023-01-13T00:04:34.468Z,2.10
2023-01-13T00:07:06.344Z,2.00
2023-01-13T00:09:38.205Z,1.70
2023-01-13T00:12:10.348Z,1.70
2023-01-13T00:14:42.626Z,1.90
2023-01-13T00:17:14.445Z,2.00
2023-01-13T00:19:46.721Z,2.00
2023-01-13T00:22:18.842Z,1.90
2023-01-13T00:24:50.678Z,2.00
2023-01-13T00:27:25.034Z,1.60
2023-01-13T00:29:56.825Z,1.70
2023-01-13T00:32:29.093Z,1.90
2023-01-13T00:35:00.925Z,1.90
2023-01-13T00:37:32.781Z,2.20
2023-01-13T00:40:04.674Z,1.80
2023-01-13T00:43:00.013Z,1.90
2023-01-13T00:45:31.858Z,1.80
2023-01-13T00:48:03.776Z,1.90
2023-01-13T00:50:35.637Z,2.20
2023-01-13T00:53:07.525Z,2.00
2023-01-13T00:55:39.507Z,1.90
2023-01-13T00:58:11.379Z,2.00
2023-01-13T01:00:43.546Z,2.20
2023-01-13T01:03:21.861Z,1.80
2023-01-13T01:05:53.721Z,2.30
2023-01-13T01:08:25.835Z,1.80
2023-01-13T01:11:06.157Z,1.90
2023-01-13T01:13:38.822Z,2.10
2023-01-13T01:16:15.115Z,2.20
2023-01-13T01:18:48.532Z,2.00
2023-01-13T01:21:21.065Z,2.10
2023-01-13T01:23:53.161Z,2.60
2023-01-13T01:26:26.559Z,2.30
2023-01-13T01:28:58.743Z,2.10
2023-01-13T01:31:32.683Z,1.90
2023-01-13T01:34:04.944Z,2.20
2023-01-13T01:36:36.998Z,2.40
2023-01-13T01:39:08.852Z,2.10
2023-01-13T01:42:00.821Z,2.00
2023-01-13T01:44:59.795Z,2.30
2023-01-13T01:47:33.556Z,2.00
2023-01-13T01:50:13.006Z,2.10
2023-01-13T01:52:47.881Z,2.10
2023-01-13T01:55:22.788Z,2.30
2023-01-13T01:57:58.666Z,1.70
2023-01-13T02:00:32.500Z,2.20
2023-01-13T02:03:07.279Z,2.10
2023-01-13T02:05:39.833Z,2.30
2023-01-13T02:08:14.264Z,2.20
2023-01-13T02:10:51.937Z,2.10
2023-01-13T02:13:24.882Z,1.90
2023-01-13T02:16:04.710Z,1.90
2023-01-13T02:18:53.330Z,1.70
2023-01-13T02:22:03.827Z,1.90
2023-01-13T02:25:08.610Z,2.10
2023-01-13T02:28:04.018Z,1.90
2023-01-13T02:31:02.791Z,1.70
2023-01-13T02:33:43.542Z,1.60
2023-01-13T02:36:25.599Z,2.00
2023-01-13T02:39:04.484Z,1.70
2023-01-13T02:42:01.569Z,1.80
2023-01-13T02:44:42.101Z,1.70
2023-01-13T02:47:21.349Z,1.70
2023-01-13T02:49:58.510Z,1.70
2023-01-13T02:52:35.940Z,1.50
2023-01-13T02:55:11.786Z,1.60
2023-01-13T02:57:45.546Z,1.90
2023-01-13T03:00:23.453Z,1.60
2023-01-13T03:02:55.426Z,1.70
2023-01-13T03:05:27.876Z,1.70
2023-01-13T03:08:17.977Z,1.30
2023-01-13T03:11:05.449Z,1.70
2023-01-13T03:13:52.632Z,2.00
2023-01-13T03:16:33.381Z,1.50
2023-01-13T03:19:23.781Z,1.40
2023-01-13T03:22:00.522Z,1.70
2023-01-13T03:24:37.915Z,1.60
2023-01-13T03:27:14.625Z,1.50
2023-01-13T03:29:51.750Z,1.60
2023-01-13T03:32:28.476Z,1.70
2023-01-13T03:35:05.622Z,1.60
2023-01-13T03:37:41.168Z,1.30
2023-01-13T03:40:18.800Z,1.60
2023-01-13T03:43:09.633Z,1.40
2023-01-13T03:45:43.601Z,1.80
2023-01-13T03:48:20.684Z,1.50
2023-01-13T03:50:55.158Z,1.70
2023-01-13T03:53:30.032Z,1.50
2023-01-13T03:56:06.887Z,1.40
2023-01-13T03:58:43.001Z,1.60
2023-01-13T04:01:19.890Z,1.50
2023-01-13T04:03:55.889Z,1.30
2023-01-13T04:06:36.393Z,1.50
2023-01-13T04:09:16.027Z,1.20
2023-01-13T04:11:53.221Z,1.40
2023-01-13T04:14:27.972Z,1.20
2023-01-13T04:16:59.973Z,1.30
2023-01-13T04:19:33.123Z,1.30
2023-01-13T04:22:04.978Z,1.60
2023-01-13T04:24:37.276Z,1.40
2023-01-13T04:27:09.039Z,1.20
2023-01-13T04:29:40.938Z,1.30
2023-01-13T04:32:12.794Z,1.10
2023-01-13T04:34:44.665Z,1.20
2023-01-13T04:37:16.524Z,1.40
2023-01-13T04:39:48.390Z,1.60
2023-01-13T04:42:20.228Z,1.10
2023-01-13T04:44:52.064Z,1.10
2023-01-13T04:47:23.858Z,1.00
2023-01-13T04:49:55.704Z,1.30
2023-01-13T04:52:27.529Z,1.30
2023-01-13T04:54:59.372Z,1.20
2023-01-13T04:57:33.310Z,1.10
2023-01-13T05:00:13.275Z,1.60
2023-01-13T05:02:45.067Z,1.10
2023-01-13T05:05:16.922Z,1.20
2023-01-13T05:07:48.736Z,0.90
2023-01-13T05:10:26.238Z,1.10
2023-01-13T05:13:15.960Z,1.10
2023-01-13T05:16:06.782Z,1.30
2023-01-13T05:18:38.855Z,1.10
2023-01-13T05:21:30.823Z,1.40
2023-01-13T05:24:20.469Z,1.30
2023-01-13T05:26:52.317Z,1.40
2023-01-13T05:29:24.113Z,1.40
2023-01-13T05:31:56.001Z,1.10
2023-01-13T05:34:27.774Z,1.30
2023-01-13T05:36:59.598Z,1.50
2023-01-13T05:39:52.160Z,1.50
2023-01-13T05:42:41.486Z,1.30
2023-01-13T05:45:14.316Z,1.30
2023-01-13T05:47:46.309Z,1.30
2023-01-13T05:50:19.205Z,1.30
2023-01-13T05:52:57.542Z,1.20
2023-01-13T05:55:29.375Z,1.60
2023-01-13T05:58:01.371Z,1.70
2023-01-13T06:00:33.199Z,1.60
2023-01-13T06:03:05.330Z,1.50
2023-01-13T06:05:37.505Z,1.70
2023-01-13T06:08:10.496Z,1.10
2023-01-13T06:10:42.499Z,1.30
2023-01-13T06:13:14.357Z,1.50
2023-01-13T06:15:46.303Z,1.50
2023-01-13T06:18:18.881Z,1.40
2023-01-13T06:20:50.913Z,1.30
2023-01-13T06:23:22.837Z,1.40
2023-01-13T06:26:01.835Z,2.00
2023-01-13T06:28:34.990Z,1.90
2023-01-13T06:31:10.528Z,1.40
2023-01-13T06:33:46.343Z,1.60
2023-01-13T06:36:22.652Z,1.20
2023-01-13T06:38:58.892Z,1.40
2023-01-13T06:41:50.342Z,2.00
2023-01-13T06:44:24.224Z,1.30
2023-01-13T06:46:56.136Z,1.40
2023-01-13T06:49:28.509Z,1.80
2023-01-13T06:52:00.617Z,1.90
2023-01-13T06:54:32.523Z,1.90
2023-01-13T06:57:04.498Z,1.40
2023-01-13T06:59:36.486Z,1.40
2023-01-13T07:02:08.426Z,1.10
2023-01-13T07:04:40.347Z,1.50
2023-01-13T07:07:13.185Z,1.30
2023-01-13T07:09:45.065Z,1.40
2023-01-13T07:12:16.970Z,1.30
2023-01-13T07:15:06.239Z,1.70
2023-01-13T07:17:38.361Z,1.50
2023-01-13T07:20:19.176Z,1.40
2023-01-13T07:22:56.374Z,1.30
2023-01-13T07:25:29.161Z,1.40
2023-01-13T07:28:01.841Z,1.40
2023-01-13T07:30:33.860Z,1.20
2023-01-13T07:33:05.737Z,1.10
2023-01-13T07:35:37.844Z,1.20
2023-01-13T07:38:09.957Z,1.30
2023-01-13T07:40:42.621Z,1.50
2023-01-13T07:43:33.184Z,1.80
2023-01-13T07:46:06.890Z,1.60
2023-01-13T07:48:38.761Z,1.70
2023-01-13T07:51:15.736Z,1.50
2023-01-13T07:53:47.689Z,1.40
2023-01-13T07:56:20.677Z,1.60
2023-01-13T07:58:53.368Z,1.40
2023-01-13T08:01:27.582Z,1.70
2023-01-13T08:03:59.813Z,1.50
2023-01-13T08:06:31.972Z,1.60
2023-01-13T08:09:04.198Z,1.80
2023-01-13T08:11:36.039Z,1.60
2023-01-13T08:14:07.967Z,1.80
2023-01-13T08:16:39.878Z,1.90
2023-01-13T08:19:11.980Z,1.50
2023-01-13T08:21:44.023Z,2.90
2023-01-13T08:24:16.103Z,2.10
2023-01-13T08:27:02.176Z,2.00
2023-01-13T08:29:34.063Z,1.50
2023-01-13T08:32:06.169Z,1.90
2023-01-13T08:34:39.003Z,1.70
2023-01-13T08:37:12.481Z,1.60
2023-01-13T08:39:44.282Z,1.40
2023-01-13T08:42:16.287Z,1.70
2023-01-13T08:44:48.104Z,2.10
2023-01-13T08:47:20.701Z,2.10
2023-01-13T08:49:52.616Z,2.30
2023-01-13T08:52:24.737Z,3.30
2023-01-13T08:54:56.597Z,2.40
2023-01-13T08:57:28.849Z,2.30
2023-01-13T09:00:00.692Z,1.80
2023-01-13T09:02:32.947Z,2.00
2023-01-13T09:05:07.190Z,1.80
2023-01-13T09:07:41.446Z,2.00
2023-01-13T09:10:15.006Z,2.10
2023-01-13T09:13:04.647Z,2.40
2023-01-13T09:15:38.378Z,2.10
2023-01-13T09:18:10.405Z,2.30
2023-01-13T09:20:42.217Z,1.70
2023-01-13T09:23:14.145Z,1.80
2023-01-13T09:25:46.219Z,2.00
2023-01-13T09:28:18.200Z,1.80
2023-01-13T09:30:50.459Z,2.00
2023-01-13T09:33:39.482Z,1.70
2023-01-13T09:36:11.717Z,1.80
2023-01-13T09:38:43.854Z,2.70
2023-01-13T09:41:42.888Z,2.00
2023-01-13T09:44:21.562Z,2.00
2023-01-13T09:46:58.645Z,1.50
2023-01-13T09:49:35.689Z,3.00
2023-01-13T09:52:15.151Z,3.10
2023-01-13T09:54:49.698Z,2.40
2023-01-13T09:57:23.542Z,2.30
2023-01-13T09:59:57.661Z,1.90
2023-01-13T10:02:41.950Z,1.80
2023-01-13T10:05:24.917Z,2.40
2023-01-13T10:08:03.042Z,1.90
2023-01-13T10:10:43.205Z,2.00
2023-01-13T10:13:20.522Z,1.70
2023-01-13T10:16:16.238Z,1.60
2023-01-13T10:18:58.320Z,2.10
2023-01-13T10:21:52.404Z,2.80
2023-01-13T10:24:34.859Z,2.40
2023-01-13T10:27:11.756Z,1.90
2023-01-13T10:29:43.896Z,1.90
2023-01-13T10:32:16.566Z,2.30
2023-01-13T10:34:56.762Z,3.00
2023-01-13T10:37:29.939Z,4.50
2023-01-13T10:40:04.166Z,5.60
2023-01-13T10:42:36.165Z,5.20
2023-01-13T10:45:26.364Z,4.40
2023-01-13T10:48:14.815Z,4.90
2023-01-13T10:50:49.798Z,4.80
2023-01-13T10:53:24.869Z,4.00
2023-01-13T10:56:05.245Z,4.80
2023-01-13T10:58:37.487Z,5.20
2023-01-13T11:01:15.973Z,5.30
2023-01-13T11:03:48.312Z,3.50
2023-01-13T11:06:25.560Z,3.50
2023-01-13T11:08:59.584Z,3.30
2023-01-13T11:11:41.431Z,3.50
2023-01-13T11:14:39.064Z,3.90
2023-01-13T11:17:24.591Z,3.30
2023-01-13T11:20:01.477Z,3.10
2023-01-13T11:22:39.334Z,4.40
2023-01-13T11:25:17.636Z,4.60
2023-01-13T11:27:58.889Z,7.50
2023-01-13T11:33:21.329Z,4.50
2023-01-13T11:36:04.475Z,4.50
2023-01-13T11:38:46.118Z,2.80
2023-01-13T11:41:25.942Z,3.40
2023-01-13T11:44:06.379Z,2.80
2023-01-13T11:46:40.510Z,3.80
2023-01-13T11:49:59.844Z,3.60
2023-01-13T11:52:58.366Z,2.70
2023-01-13T11:55:39.873Z,2.60
2023-01-13T11:58:38.807Z,2.40
2023-01-13T12:01:35.306Z,2.60
2023-01-13T12:04:25.427Z,2.50
2023-01-13T12:07:12.871Z,2.20
2023-01-13T12:10:03.457Z,2.30
2023-01-13T12:12:49.016Z,2.20
2023-01-13T12:16:01.335Z,1.20
2023-01-13T12:18:52.609Z,1.80
2023-01-13T12:24:07.120Z,1.60
2023-01-13T12:26:43.956Z,2.10
2023-01-13T12:29:19.405Z,2.30
2023-01-13T12:31:52.664Z,1.70
2023-01-13T12:34:36.690Z,2.20
2023-01-13T12:37:14.763Z,2.10
2023-01-13T12:40:04.927Z,1.90
2023-01-13T12:43:14.091Z,2.30
2023-01-13T12:45:46.186Z,1.70
2023-01-13T12:49:05.324Z,1.80
2023-01-13T12:51:40.174Z,1.40
2023-01-13T12:54:56.425Z,1.50
2023-01-13T12:57:31.282Z,1.60
2023-01-13T13:00:20.464Z,1.60
2023-01-13T13:03:35.749Z,1.30
2023-01-13T13:06:15.280Z,1.70
2023-01-13T13:08:59.553Z,2.20
2023-01-13T13:11:59.250Z,3.80
2023-01-13T13:15:04.475Z,5.70
2023-01-13T13:18:01.216Z,5.20
2023-01-13T13:21:04.561Z,4.40
2023-01-13T13:24:06.292Z,4.20
2023-01-13T13:26:45.994Z,3.80
2023-01-13T13:29:40.872Z,3.50
2023-01-13T13:32:29.384Z,2.80
2023-01-13T13:35:20.211Z,3.00
2023-01-13T13:38:24.638Z,2.70
2023-01-13T13:41:14.560Z,3.20
2023-01-13T13:44:06.114Z,2.80
2023-01-13T13:46:50.509Z,3.10
2023-01-13T13:49:35.414Z,2.30
2023-01-13T13:52:15.030Z,2.10
2023-01-13T13:54:49.508Z,1.80
2023-01-13T13:57:23.796Z,1.70
2023-01-13T14:00:00.505Z,1.80
2023-01-13T14:02:36.826Z,1.70
2023-01-13T14:05:20.090Z,2.40
2023-01-13T14:08:01.825Z,2.50
2023-01-13T14:10:35.652Z,1.20
2023-01-13T14:13:16.622Z,3.90
2023-01-13T14:15:57.158Z,6.90
2023-01-13T14:18:30.722Z,5.50
2023-01-13T14:21:05.226Z,4.20
2023-01-13T14:23:37.040Z,2.50
2023-01-13T14:26:13.068Z,2.40
2023-01-13T14:28:45.366Z,2.00
2023-01-13T14:31:17.322Z,1.70
2023-01-13T14:33:51.916Z,1.50
2023-01-13T14:36:27.109Z,1.70
2023-01-13T14:39:34.371Z,1.90
2023-01-13T14:42:12.470Z,1.40
2023-01-13T14:44:48.147Z,1.70
2023-01-13T14:47:27.976Z,1.80
2023-01-13T14:50:03.879Z,2.00
2023-01-13T14:52:39.099Z,2.20
2023-01-13T14:55:28.630Z,2.00
2023-01-13T14:58:28.440Z,1.90
2023-01-13T15:01:31.177Z,2.00
2023-01-13T15:04:28.588Z,2.40
2023-01-13T15:07:01.613Z,3.00
2023-01-13T15:09:41.124Z,3.50
2023-01-13T15:12:30.540Z,2.90
2023-01-13T15:15:04.264Z,2.90
2023-01-13T15:17:36.833Z,2.70
2023-01-13T15:20:16.968Z,3.60
2023-01-13T15:22:49.859Z,3.30
2023-01-13T15:25:22.418Z,3.10
2023-01-13T15:27:55.298Z,4.60
2023-01-13T15:30:29.556Z,4.50
2023-01-13T15:33:01.561Z,3.20
2023-01-13T15:35:34.601Z,2.60
2023-01-13T15:38:13.350Z,2.60
2023-01-13T15:40:45.851Z,3.40
2023-01-13T15:43:37.367Z,2.60
2023-01-13T15:46:31.889Z,2.20
2023-01-13T15:49:18.666Z,2.90
2023-01-13T15:51:51.445Z,3.40
2023-01-13T15:54:24.773Z,3.60
2023-01-13T15:56:56.928Z,3.10
2023-01-13T15:59:30.068Z,2.60
2023-01-13T16:02:01.932Z,4.60
2023-01-13T16:04:33.779Z,4.30
2023-01-13T16:07:13.914Z,5.40
2023-01-13T16:09:46.331Z,3.10
2023-01-13T16:12:18.208Z,4.40
2023-01-13T16:14:50.068Z,4.80
2023-01-13T16:17:23.881Z,6.20
2023-01-13T16:19:56.222Z,6.80
2023-01-13T16:22:28.436Z,5.00
2023-01-13T16:25:00.293Z,4.00
2023-01-13T16:27:32.121Z,4.30
2023-01-13T16:30:04.015Z,3.80
2023-01-13T16:32:35.842Z,5.50
2023-01-13T16:35:09.788Z,5.40
2023-01-13T16:37:41.786Z,2.80
2023-01-13T16:40:40.880Z,2.70
2023-01-13T16:43:14.523Z,2.50
2023-01-13T16:45:46.376Z,2.90
2023-01-13T16:48:22.801Z,3.20
2023-01-13T16:50:55.718Z,3.90
2023-01-13T16:53:27.893Z,3.30
2023-01-13T16:55:59.903Z,4.10
2023-01-13T16:58:31.783Z,3.90
2023-01-13T17:01:06.374Z,3.70
2023-01-13T17:03:38.403Z,4.00
2023-01-13T17:06:13.513Z,4.70
2023-01-13T17:08:45.319Z,5.30
2023-01-13T17:11:17.259Z,4.80
2023-01-13T17:13:49.054Z,5.90
2023-01-13T17:16:24.458Z,4.90
2023-01-13T17:18:56.488Z,4.60
2023-01-13T17:21:28.406Z,5.10
2023-01-13T17:24:00.321Z,4.30
2023-01-13T17:26:37.274Z,5.10
2023-01-13T17:29:13.277Z,4.60
2023-01-13T17:31:45.148Z,4.30
2023-01-13T17:34:17.354Z,4.80
2023-01-13T17:36:49.627Z,5.00
2023-01-13T17:39:23.665Z,4.50
2023-01-13T17:41:56.357Z,4.00
2023-01-13T17:44:28.145Z,5.00
2023-01-13T17:47:00.070Z,4.80
2023-01-13T17:49:31.898Z,4.40
2023-01-13T17:52:03.824Z,4.80
2023-01-13T17:54:35.648Z,6.00
2023-01-13T17:57:07.901Z,4.60
2023-01-13T17:59:41.442Z,4.10
2023-01-13T18:02:15.317Z,4.70
2023-01-13T18:04:47.165Z,4.40
2023-01-13T18:07:19.043Z,3.80
2023-01-13T18:09:50.852Z,4.40
2023-01-13T18:12:22.726Z,4.20
2023-01-13T18:14:54.518Z,4.40
2023-01-13T18:17:26.364Z,5.00
2023-01-13T18:20:15.504Z,4.50
2023-01-13T18:23:04.647Z,4.30
2023-01-13T18:25:54.272Z,5.00
2023-01-13T18:28:26.168Z,5.30
2023-01-13T18:30:58.015Z,7.70
2023-01-13T18:33:30.175Z,8.20
2023-01-13T18:36:06.621Z,7.00
2023-01-13T18:38:38.631Z,5.80
2023-01-13T18:41:31.842Z,3.90
2023-01-13T18:44:03.969Z,4.50
2023-01-13T18:46:35.827Z,3.50
2023-01-13T18:49:07.687Z,3.90
2023-01-13T18:51:39.987Z,3.90
2023-01-13T18:54:11.887Z,4.80
2023-01-13T18:56:43.847Z,4.20
2023-01-13T18:59:15.821Z,3.80
2023-01-13T19:01:47.751Z,3.80
2023-01-13T19:04:20.162Z,4.30
2023-01-13T19:06:52.119Z,3.50
2023-01-13T19:09:26.798Z,3.20
2023-01-13T19:12:01.215Z,3.40
2023-01-13T19:14:37.612Z,3.90
2023-01-13T19:17:11.583Z,5.60
2023-01-13T19:19:44.906Z,4.40
2023-01-13T19:22:19.696Z,3.70
2023-01-13T19:24:52.107Z,5.00
2023-01-13T19:27:24.231Z,3.60
2023-01-13T19:29:58.276Z,3.30
2023-01-13T19:32:30.988Z,4.00
2023-01-13T19:35:02.974Z,4.00
2023-01-13T19:37:36.954Z,3.90
2023-01-13T19:40:14.559Z,4.00
2023-01-13T19:43:04.672Z,3.90
2023-01-13T19:45:36.463Z,4.60
2023-01-13T19:48:08.901Z,4.00
2023-01-13T19:50:41.550Z,4.00
2023-01-13T19:53:18.031Z,4.30
2023-01-13T19:55:50.311Z,3.60
2023-01-13T19:58:24.030Z,3.60
2023-01-13T20:00:56.822Z,3.80
2023-01-13T20:03:35.410Z,3.80
2023-01-13T20:06:11.322Z,2.90
2023-01-13T20:08:46.231Z,3.40
2023-01-13T20:11:25.987Z,3.60
2023-01-13T20:13:58.965Z,3.30
2023-01-13T20:16:33.014Z,3.20
2023-01-13T20:19:05.004Z,3.00
2023-01-13T20:21:37.910Z,3.00
2023-01-13T20:24:12.950Z,3.10
2023-01-13T20:26:45.042Z,3.30
2023-01-13T20:29:16.904Z,4.90
2023-01-13T20:31:49.708Z,6.70
2023-01-13T20:34:21.965Z,4.90
2023-01-13T20:36:54.722Z,2.90
2023-01-13T20:39:29.182Z,2.90
2023-01-13T20:42:29.864Z,2.50
2023-01-13T20:45:03.012Z,2.70
2023-01-13T20:47:34.955Z,4.30
2023-01-13T20:50:15.685Z,3.20
2023-01-13T20:52:48.093Z,3.00
2023-01-13T20:55:20.426Z,3.50
2023-01-13T20:57:52.378Z,2.70
2023-01-13T21:00:28.534Z,2.20
2023-01-13T21:03:00.680Z,2.20
2023-01-13T21:05:33.406Z,1.70
2023-01-13T21:08:05.789Z,2.70
2023-01-13T21:10:37.731Z,2.60
2023-01-13T21:13:28.311Z,2.60
2023-01-13T21:16:00.309Z,2.00
2023-01-13T21:18:50.136Z,2.70
2023-01-13T21:21:22.040Z,2.10
2023-01-13T21:23:54.216Z,2.50
2023-01-13T21:26:26.175Z,2.70
2023-01-13T21:29:00.079Z,2.50
2023-01-13T21:31:31.922Z,2.50
2023-01-13T21:34:05.209Z,2.30
2023-01-13T21:36:37.130Z,1.80
2023-01-13T21:39:08.940Z,2.20
2023-01-13T21:41:58.530Z,1.80
2023-01-13T21:44:47.714Z,2.10
2023-01-13T21:47:38.082Z,2.10
2023-01-13T21:50:26.197Z,1.90
2023-01-13T21:54:36.343Z,2.60
2023-01-13T21:57:08.149Z,2.40
2023-01-13T21:59:39.996Z,2.50
2023-01-13T22:02:26.550Z,3.70
2023-01-13T22:04:58.445Z,4.90
2023-01-13T22:07:32.571Z,4.00
2023-01-13T22:10:05.313Z,4.40
2023-01-13T22:12:44.783Z,4.50
2023-01-13T22:15:18.186Z,3.50
2023-01-13T22:17:53.088Z,3.60
2023-01-13T22:20:29.229Z,3.30
2023-01-13T22:23:01.547Z,2.90
2023-01-13T22:25:33.472Z,2.40
2023-01-13T22:28:06.187Z,2.50
2023-01-13T22:30:38.134Z,2.30
2023-01-13T22:33:10.806Z,2.40
2023-01-13T22:35:42.683Z,2.90
2023-01-13T22:38:14.477Z,3.00
2023-01-13T22:40:46.300Z,2.40
2023-01-13T22:43:18.197Z,2.30
2023-01-13T22:45:58.925Z,3.00
2023-01-13T22:48:31.381Z,2.80
2023-01-13T22:51:08.752Z,2.30
2023-01-13T22:53:41.436Z,2.90
2023-01-13T22:56:19.272Z,2.40
2023-01-13T22:58:53.685Z,2.70
2023-01-13T23:01:26.981Z,2.90
2023-01-13T23:03:59.429Z,2.00
2023-01-13T23:06:34.161Z,2.20
2023-01-13T23:09:06.371Z,2.00
2023-01-13T23:11:38.334Z,2.20
2023-01-13T23:14:12.911Z,2.10
2023-01-13T23:16:46.941Z,2.40
2023-01-13T23:19:18.934Z,1.90
2023-01-13T23:21:50.783Z,1.90
2023-01-13T23:24:25.874Z,2.30
2023-01-13T23:26:57.787Z,1.90
2023-01-13T23:29:29.736Z,1.80
2023-01-13T23:32:01.573Z,1.90
2023-01-13T23:34:33.482Z,2.20
2023-01-13T23:37:05.322Z,2.20
2023-01-13T23:39:37.192Z,1.80
2023-01-13T23:42:09.171Z,2.00
2023-01-13T23:44:41.099Z,1.90
2023-01-13T23:47:13.124Z,2.10
2023-01-13T23:49:45.044Z,1.70
2023-01-13T23:52:18.118Z,1.90
2023-01-13T23:54:50.252Z,1.70
2023-01-13T23:57:22.133Z,2.30
2023-01-13T23:59:54.344Z,1.60
